Talbott, TN (37877)

1:36 AM EDT on November 01, 2014 (GMT -0400)
KTNJEFFE2 | Change Station
CLOSE
Current Station
Personal Weather Station
Location: Jefferson City, TN
Elevation: 1205 ft
Nearby Weather Stations

Elev 1205 ft 36.14 °N, 83.44 °W | Updated 1 minute ago

Rain
Rain
36.0 °F
Feels Like 33 °F
N
4.0
Wind Variable Wind from NW
Gusts 4.0 mph

Today
High -- | Low -- °F
--% Chance of Precip.
Yesterday
High -- | Low -- °F
Precip. -- in
7:56 AM 6:37 PM
Waxing Gibbous, 63% visible
Pressure 29.93 in
Visibility 5.0 miles
Clouds Scattered Clouds 2100 ft
Windchill 33 °F
Dew Point 34 °F
Humidity 92%
Rainfall 0.02 in
Snow Depth Not available.
UV 0 out of 12
Pollen .10 out of 12
Air Quality Not available.
Flu Activity Not available.
METAR K0VG 010515Z AUTO 00000KT 5SM -RA SCT021 02/01 A2993 RMK AO2

More Conditions Fewer Conditions

Pressure 29.93 in
Visibility 5.0 miles
Clouds Scattered Clouds 2100 ft
Windchill 33 °F
Dew Point 34 °F
Humidity 92%
Rainfall 0.02 in
Snow Depth Not available.
UV 0 out of 12
Pollen .10 out of 12
Air Quality Not available.
Flu Activity Not available.
METAR K0VG 010515Z AUTO 00000KT 5SM -RA SCT021 02/01 A2993 RMK AO2

More Conditions Fewer Conditions

10-Day Weather Forecast

Almanac

Astronomy

Nov. 01, 2014 Rise Set
Actual Time
Civil Twilight
Nautical Twilight
Astronomical Twilight
Moon
Length of Visible Light
Length of Day
Tomorrow will be .
, % of the Moon is Illuminated

Today's Extremes

State Highs State Lows

Community

WunderPhotos

Upload Photos

1,766,859 photos uploaded!

WunderBlogs® & News

Nearby

Air Quality

  Air Quality AQ Index Pollutant
Not available.

Snow Depth

Station Depth Elevation

Earthquake Activity

City Distance Mag. Time & Date
Minimum magnitude displayed is 2.5.

Coastal Water Temperatures

Place Temperature

Nearby Weather Stations